createdAt,value
2022-11-01T00:04:57.721Z,100.00
2022-11-01T00:09:59.464Z,100.00
2022-11-01T00:15:01.183Z,100.00
2022-11-01T00:20:02.950Z,100.00
2022-11-01T00:25:05.304Z,100.00
2022-11-01T00:30:07.264Z,100.00
2022-11-01T00:35:09.133Z,100.00
2022-11-01T00:40:11.324Z,100.00
2022-11-01T00:45:13.111Z,100.00
2022-11-01T00:50:14.904Z,100.00
2022-11-01T00:55:16.577Z,100.00
2022-11-01T01:00:18.277Z,100.00
2022-11-01T01:05:19.998Z,100.00
2022-11-01T01:10:21.736Z,100.00
2022-11-01T01:15:23.430Z,100.00
2022-11-01T01:20:25.183Z,100.00
2022-11-01T01:25:26.900Z,100.00
2022-11-01T01:30:28.619Z,100.00
2022-11-01T01:35:30.322Z,100.00
2022-11-01T01:40:32.699Z,100.00
2022-11-01T01:45:36.550Z,100.00
2022-11-01T01:50:39.984Z,100.00
2022-11-01T01:56:09.665Z,100.00
2022-11-01T02:01:11.484Z,100.00
2022-11-01T02:06:15.414Z,100.00
2022-11-01T02:11:17.337Z,100.00
2022-11-01T02:16:39.576Z,100.00
2022-11-01T02:21:46.601Z,100.00
2022-11-01T02:26:57.710Z,100.00
2022-11-01T02:32:24.123Z,100.00
2022-11-01T02:37:32.603Z,100.00
2022-11-01T02:42:37.066Z,100.00
2022-11-01T02:47:38.800Z,100.00
2022-11-01T02:52:40.829Z,100.00
2022-11-01T02:57:42.494Z,100.00
2022-11-01T03:02:44.425Z,100.00
2022-11-01T03:07:48.490Z,100.00
2022-11-01T03:13:05.690Z,100.00
2022-11-01T03:18:13.302Z,100.00
2022-11-01T03:23:35.979Z,100.00
2022-11-01T03:28:45.777Z,100.00
2022-11-01T03:33:58.170Z,100.00
2022-11-01T03:39:24.216Z,100.00
2022-11-01T03:44:25.874Z,100.00
2022-11-01T03:49:27.495Z,100.00
2022-11-01T03:54:29.206Z,100.00
2022-11-01T03:59:30.903Z,100.00
2022-11-01T04:04:32.486Z,100.00
2022-11-01T04:09:34.117Z,100.00
2022-11-01T04:14:54.378Z,100.00
2022-11-01T04:20:14.590Z,100.00
2022-11-01T04:25:16.257Z,100.00
2022-11-01T04:30:20.405Z,100.00
2022-11-01T04:35:22.366Z,100.00
2022-11-01T04:40:24.143Z,100.00
2022-11-01T04:45:25.916Z,100.00
2022-11-01T04:50:27.721Z,100.00
2022-11-01T04:55:29.570Z,100.00
2022-11-01T05:00:33.074Z,100.00
2022-11-01T05:05:35.129Z,100.00
2022-11-01T05:10:38.416Z,100.00
2022-11-01T05:15:53.203Z,100.00
2022-11-01T05:21:01.667Z,100.00
2022-11-01T05:26:03.345Z,100.00
2022-11-01T05:31:05.097Z,100.00
2022-11-01T05:36:07.449Z,100.00
2022-11-01T05:41:09.221Z,100.00
2022-11-01T05:46:10.882Z,100.00
2022-11-01T05:51:12.532Z,100.00
2022-11-01T05:56:14.291Z,100.00
2022-11-01T06:01:17.828Z,100.00
2022-11-01T06:06:19.597Z,100.00
2022-11-01T06:11:21.290Z,100.00
2022-11-01T06:16:23.062Z,100.00
2022-11-01T06:21:27.648Z,100.00
2022-11-01T06:26:31.839Z,100.00
2022-11-01T06:31:33.461Z,100.00
2022-11-01T06:36:35.079Z,100.00
2022-11-01T06:41:36.698Z,100.00
2022-11-01T06:46:38.423Z,100.00
2022-11-01T06:51:40.083Z,100.00
2022-11-01T06:56:41.731Z,100.00
2022-11-01T07:01:44.135Z,100.00
2022-11-01T07:06:45.969Z,100.00
2022-11-01T07:11:47.607Z,100.00
2022-11-01T07:16:49.266Z,100.00
2022-11-01T07:21:50.879Z,100.00
2022-11-01T07:26:52.529Z,100.00
2022-11-01T07:31:54.149Z,100.00
2022-11-01T07:36:55.795Z,100.00
2022-11-01T07:41:58.722Z,100.00
2022-11-01T07:47:00.390Z,98.81
2022-11-01T07:52:04.157Z,98.60
2022-11-01T07:57:05.894Z,99.75
2022-11-01T08:02:09.143Z,99.30
2022-11-01T08:07:10.828Z,99.42
2022-11-01T08:12:12.673Z,98.82
2022-11-01T08:17:14.289Z,98.43
2022-11-01T08:22:15.927Z,97.94
2022-11-01T08:27:17.616Z,98.17
2022-11-01T08:32:21.005Z,98.48
2022-11-01T08:37:22.678Z,97.16
2022-11-01T08:42:24.292Z,95.48
2022-11-01T08:47:25.933Z,93.76
2022-11-01T08:52:28.052Z,88.50
2022-11-01T08:57:30.225Z,84.40
2022-11-01T09:02:31.884Z,86.13
2022-11-01T09:07:35.999Z,87.22
2022-11-01T09:12:37.885Z,88.51
2022-11-01T09:17:39.570Z,89.96
2022-11-01T09:22:41.310Z,89.68
2022-11-01T09:27:42.961Z,89.32
2022-11-01T09:32:44.568Z,89.49
2022-11-01T09:37:46.219Z,88.73
2022-11-01T09:42:47.911Z,87.65
2022-11-01T09:47:53.901Z,85.32
2022-11-01T09:52:55.778Z,81.94
2022-11-01T09:58:01.121Z,60.54
2022-11-01T10:03:16.029Z,41.05
2022-11-01T10:08:37.853Z,41.63
2022-11-01T10:13:49.813Z,42.10
2022-11-01T10:18:57.796Z,45.49
2022-11-01T10:23:59.922Z,53.89
2022-11-01T10:29:20.272Z,61.40
2022-11-01T10:34:41.412Z,66.51
2022-11-01T10:39:55.612Z,70.84
2022-11-01T10:45:01.450Z,73.71
2022-11-01T10:50:12.392Z,75.74
2022-11-01T10:55:40.043Z,75.29
2022-11-01T11:00:41.762Z,73.46
2022-11-01T11:05:43.474Z,68.78
2022-11-01T11:10:45.456Z,51.26
2022-11-01T11:15:52.559Z,46.26
2022-11-01T11:21:08.628Z,43.04
2022-11-01T11:26:13.412Z,42.64
2022-11-01T11:31:26.436Z,42.62
2022-11-01T11:36:31.295Z,37.37
2022-11-01T11:41:35.201Z,34.47
2022-11-01T11:46:36.827Z,31.02
2022-11-01T11:51:38.601Z,34.21
2022-11-01T11:56:40.226Z,28.53
2022-11-01T12:01:42.009Z,26.20
2022-11-01T12:06:44.495Z,26.85
2022-11-01T12:11:46.175Z,27.04
2022-11-01T12:16:47.873Z,32.61
2022-11-01T12:21:49.494Z,38.35
2022-11-01T12:26:51.865Z,41.22
2022-11-01T12:31:53.720Z,42.59
2022-11-01T12:37:32.894Z,42.21
2022-11-01T12:42:39.647Z,41.92
2022-11-01T12:47:43.707Z,42.53
2022-11-01T12:53:03.246Z,40.51
2022-11-01T12:58:07.638Z,39.29
2022-11-01T13:03:47.514Z,40.20
2022-11-01T13:09:14.994Z,39.20
2022-11-01T13:14:43.539Z,41.03
2022-11-01T13:20:22.098Z,42.27
2022-11-01T13:25:49.939Z,41.90
2022-11-01T13:30:58.316Z,43.26
2022-11-01T13:36:30.278Z,44.05
2022-11-01T13:41:57.130Z,43.00
2022-11-01T13:46:58.683Z,42.74
2022-11-01T13:52:19.777Z,44.10
2022-11-01T13:57:22.581Z,43.34
2022-11-01T14:02:24.411Z,43.86
2022-11-01T14:07:30.675Z,44.83
2022-11-01T14:12:37.421Z,44.57
2022-11-01T14:17:56.623Z,44.83
2022-11-01T14:22:58.312Z,45.10
2022-11-01T14:28:20.315Z,45.47
2022-11-01T14:33:22.451Z,46.03
2022-11-01T14:38:31.767Z,47.26
2022-11-01T14:43:41.105Z,46.39
2022-11-01T14:49:01.437Z,48.06
2022-11-01T14:54:13.232Z,48.93
2022-11-01T14:59:20.675Z,50.50
2022-11-01T15:04:24.077Z,50.71
2022-11-01T15:09:30.240Z,54.78
2022-11-01T15:14:35.706Z,55.89
2022-11-01T15:19:38.006Z,55.08
2022-11-01T15:24:39.657Z,56.64
2022-11-01T15:29:42.462Z,57.07
2022-11-01T15:34:51.428Z,61.23
2022-11-01T15:39:53.319Z,59.48
2022-11-01T15:44:55.040Z,61.88
2022-11-01T15:49:59.220Z,62.36
2022-11-01T15:55:14.464Z,60.53
2022-11-01T16:00:20.494Z,61.36
2022-11-01T16:05:24.793Z,62.00
2022-11-01T16:10:29.626Z,62.13
2022-11-01T16:15:32.999Z,65.61
2022-11-01T16:20:35.483Z,66.92
2022-11-01T16:25:37.566Z,65.63
2022-11-01T16:30:47.321Z,65.94
2022-11-01T16:36:05.006Z,66.25
2022-11-01T16:41:24.305Z,65.92
2022-11-01T16:46:27.210Z,65.67
2022-11-01T16:51:30.158Z,65.54
2022-11-01T16:56:37.416Z,65.85
2022-11-01T17:01:39.654Z,66.52
2022-11-01T17:06:41.429Z,67.53
2022-11-01T17:11:49.525Z,67.59
2022-11-01T17:16:52.635Z,67.17
2022-11-01T17:21:54.336Z,66.84
2022-11-01T17:26:57.857Z,70.96
2022-11-01T17:32:00.978Z,71.87
2022-11-01T17:37:03.175Z,73.59
2022-11-01T17:42:04.815Z,76.91
2022-11-01T17:47:06.447Z,78.58
2022-11-01T17:52:08.124Z,81.54
2022-11-01T17:57:09.838Z,79.85
2022-11-01T18:02:11.594Z,82.85
2022-11-01T18:07:13.827Z,84.09
2022-11-01T18:12:26.665Z,85.66
2022-11-01T18:23:14.549Z,87.50
2022-11-01T18:28:23.118Z,87.33
2022-11-01T18:34:02.554Z,88.08
2022-11-01T18:39:32.687Z,87.39
2022-11-01T18:44:34.333Z,86.31
2022-11-01T18:49:35.952Z,84.47
2022-11-01T18:54:38.461Z,84.48
2022-11-01T18:59:40.379Z,83.28
2022-11-01T19:04:42.632Z,83.47
2022-11-01T19:09:58.453Z,82.67
2022-11-01T19:15:03.696Z,82.46
2022-11-01T19:20:32.235Z,81.39
2022-11-01T19:25:35.606Z,81.08
2022-11-01T19:30:37.294Z,80.39
2022-11-01T19:35:38.959Z,79.60
2022-11-01T19:40:41.373Z,79.47
2022-11-01T19:45:53.550Z,78.51
2022-11-01T19:50:55.317Z,77.76
2022-11-01T19:56:02.531Z,76.79
2022-11-01T20:01:19.906Z,76.16
2022-11-01T20:06:28.850Z,76.60
2022-11-01T20:11:32.201Z,75.81
2022-11-01T20:16:33.852Z,74.81
2022-11-01T20:21:35.538Z,75.54
2022-11-01T20:26:37.349Z,75.35
2022-11-01T20:31:39.041Z,76.59
2022-11-01T20:36:40.720Z,75.59
2022-11-01T20:41:42.353Z,77.98
2022-11-01T20:46:44.042Z,78.80
2022-11-01T20:51:45.978Z,79.26
2022-11-01T20:56:47.616Z,78.62
2022-11-01T21:01:49.392Z,79.33
2022-11-01T21:06:51.146Z,79.61
2022-11-01T21:11:52.881Z,79.96
2022-11-01T21:16:55.682Z,80.12
2022-11-01T21:21:58.007Z,80.57
2022-11-01T21:27:23.821Z,81.09
2022-11-01T21:32:34.504Z,81.02
2022-11-01T21:37:36.122Z,80.89
2022-11-01T21:42:38.924Z,81.85
2022-11-01T21:47:45.422Z,81.31
2022-11-01T21:52:47.435Z,81.74
2022-11-01T21:57:49.119Z,80.75
2022-11-01T22:02:50.752Z,80.36
2022-11-01T22:07:52.377Z,80.19
2022-11-01T22:12:54.000Z,80.68
2022-11-01T22:17:55.689Z,81.16
2022-11-01T22:22:57.331Z,81.51
2022-11-01T22:27:58.967Z,80.66
2022-11-01T22:33:00.842Z,81.21
2022-11-01T22:38:17.225Z,80.71
2022-11-01T22:43:18.928Z,80.92
2022-11-01T22:48:22.315Z,80.92
2022-11-01T22:53:23.937Z,80.08
2022-11-01T22:58:28.469Z,80.12
2022-11-01T23:03:37.574Z,79.38
2022-11-01T23:08:39.233Z,79.25
2022-11-01T23:13:59.436Z,79.53
2022-11-01T23:19:01.841Z,79.80
2022-11-01T23:24:03.560Z,79.46
2022-11-01T23:29:05.293Z,79.10
2022-11-01T23:34:09.467Z,78.75
2022-11-01T23:39:11.956Z,79.38
2022-11-01T23:44:19.875Z,79.84
2022-11-01T23:49:25.647Z,79.07
2022-11-01T23:54:33.346Z,78.00
2022-11-01T23:59:34.966Z,78.28
